TimeAKDT,TemperatureF,Dew PointF,Humidity,Sea Level PressureIn,VisibilityMPH,Wind Direction,Wind SpeedMPH,Gust SpeedMPH,PrecipitationIn,Events,Conditions,WindDirDegrees,DateUTC
12:16 AM,69.8,42.8,38,29.81,10.0,Calm,Calm,-,N/A,,Clear,0,2013-08-02 08:16:00
12:36 AM,69.8,42.8,38,29.80,10.0,Calm,Calm,-,N/A,,Clear,0,2013-08-02 08:36:00
12:56 AM,69.8,42.8,38,29.81,10.0,Calm,Calm,-,N/A,,Clear,0,2013-08-02 08:56:00
1:16 AM,69.8,42.8,38,29.81,10.0,Calm,Calm,-,N/A,,Clear,0,2013-08-02 09:16:00
1:36 AM,69.8,42.8,38,29.81,10.0,Calm,Calm,-,N/A,,Clear,0,2013-08-02 09:36:00
1:56 AM,69.8,42.8,38,29.81,10.0,Calm,Calm,-,N/A,,Clear,0,2013-08-02 09:56:00
2:16 AM,69.8,42.8,38,29.80,10.0,WSW,3.5,-,N/A,,Clear,240,2013-08-02 10:16:00
2:36 AM,69.8,42.8,38,29.80,10.0,Calm,Calm,-,N/A,,Clear,0,2013-08-02 10:36:00
2:56 AM,68.0,44.6,43,29.81,10.0,Calm,Calm,-,N/A,,Clear,0,2013-08-02 10:56:00
3:16 AM,68.0,44.6,43,29.81,10.0,Calm,Calm,-,N/A,,Clear,0,2013-08-02 11:16:00
3:36 AM,68.0,44.6,43,29.81,10.0,West,3.5,-,N/A,,Partly Cloudy,260,2013-08-02 11:36:00
3:56 AM,68.0,44.6,43,29.81,10.0,West,3.5,-,N/A,,Partly Cloudy,280,2013-08-02 11:56:00
4:16 AM,66.2,44.6,46,29.81,10.0,Calm,Calm,-,N/A,,Mostly Cloudy,0,2013-08-02 12:16:00
4:36 AM,66.2,46.4,49,29.82,10.0,Calm,Calm,-,N/A,,Scattered Clouds,0,2013-08-02 12:36:00
4:56 AM,66.2,46.4,49,29.82,10.0,Calm,Calm,-,N/A,,Clear,0,2013-08-02 12:56:00
5:16 AM,64.4,46.4,52,29.82,10.0,Calm,Calm,-,N/A,,Clear,0,2013-08-02 13:16:00
5:36 AM,62.6,48.2,59,29.83,10.0,Calm,Calm,-,N/A,,Clear,0,2013-08-02 13:36:00
5:56 AM,62.6,48.2,59,29.82,10.0,Calm,Calm,-,N/A,,Clear,0,2013-08-02 13:56:00
6:16 AM,60.8,48.2,63,29.82,10.0,Calm,Calm,-,N/A,,Clear,0,2013-08-02 14:16:00
6:36 AM,60.8,48.2,63,29.83,10.0,Calm,Calm,-,N/A,,Clear,0,2013-08-02 14:36:00
6:56 AM,60.8,48.2,63,29.83,10.0,Calm,Calm,-,N/A,,Clear,0,2013-08-02 14:56:00
7:16 AM,60.8,50.0,68,29.84,10.0,Calm,Calm,-,N/A,,Clear,0,2013-08-02 15:16:00
7:36 AM,59.0,48.2,67,29.84,10.0,Calm,Calm,-,N/A,,Clear,0,2013-08-02 15:36:00
7:56 AM,59.0,48.2,67,29.84,10.0,Calm,Calm,-,N/A,,Mostly Cloudy,0,2013-08-02 15:56:00
8:16 AM,59.0,48.2,67,29.84,10.0,Calm,Calm,-,N/A,,Mostly Cloudy,0,2013-08-02 16:16:00
8:36 AM,59.0,48.2,67,29.84,10.0,Calm,Calm,-,N/A,,Partly Cloudy,0,2013-08-02 16:36:00
8:56 AM,60.8,50.0,68,29.85,10.0,Calm,Calm,-,N/A,,Partly Cloudy,0,2013-08-02 16:56:00
9:16 AM,60.8,51.8,72,29.85,10.0,Calm,Calm,-,N/A,,Mostly Cloudy,0,2013-08-02 17:16:00
9:36 AM,60.8,51.8,72,29.85,10.0,Calm,Calm,-,N/A,,Mostly Cloudy,0,2013-08-02 17:36:00
9:56 AM,60.8,51.8,72,29.85,10.0,Calm,Calm,-,N/A,,Clear,0,2013-08-02 17:56:00
10:16 AM,62.6,53.6,72,29.85,10.0,Calm,Calm,-,N/A,,Scattered Clouds,0,2013-08-02 18:16:00
10:36 AM,66.2,53.6,64,29.85,10.0,Calm,Calm,-,N/A,,Mostly Cloudy,0,2013-08-02 18:36:00
10:56 AM,69.8,51.8,53,29.84,10.0,Calm,Calm,-,N/A,,Scattered Clouds,0,2013-08-02 18:56:00
11:16 AM,68.0,53.6,60,29.84,10.0,Calm,Calm,-,N/A,,Clear,0,2013-08-02 19:16:00
11:36 AM,69.8,55.4,60,29.84,10.0,ESE,3.5,-,N/A,,Clear,120,2013-08-02 19:36:00
11:56 AM,68.0,53.6,60,29.84,10.0,Calm,Calm,-,N/A,,Clear,0,2013-08-02 19:56:00
12:16 PM,69.8,53.6,56,29.84,10.0,East,3.5,-,N/A,,Clear,100,2013-08-02 20:16:00
12:36 PM,71.6,53.6,53,29.84,10.0,Calm,Calm,-,N/A,,Clear,0,2013-08-02 20:36:00
12:56 PM,71.6,50.0,46,29.84,10.0,Calm,Calm,-,N/A,,Clear,0,2013-08-02 20:56:00
1:16 PM,73.4,48.2,41,29.83,10.0,South,4.6,-,N/A,,Clear,180,2013-08-02 21:16:00
1:36 PM,73.4,48.2,41,29.83,10.0,SW,8.1,-,N/A,,Clear,220,2013-08-02 21:36:00
1:56 PM,73.4,48.2,41,29.83,10.0,SSW,8.1,-,N/A,,Partly Cloudy,210,2013-08-02 21:56:00
2:16 PM,73.4,48.2,41,29.82,10.0,SW,5.8,-,N/A,,Mostly Cloudy,230,2013-08-02 22:16:00
2:36 PM,73.4,48.2,41,29.82,10.0,South,5.8,-,N/A,,Overcast,180,2013-08-02 22:36:00
2:56 PM,75.2,46.4,36,29.82,10.0,South,3.5,-,N/A,,Mostly Cloudy,180,2013-08-02 22:56:00
3:16 PM,75.2,46.4,36,29.81,10.0,Calm,Calm,-,N/A,,Partly Cloudy,0,2013-08-02 23:16:00
3:36 PM,77.0,46.4,34,29.81,10.0,ENE,3.5,-,N/A,,Clear,60,2013-08-02 23:36:00
3:56 PM,77.0,44.6,32,29.81,10.0,ESE,4.6,-,N/A,,Clear,110,2013-08-02 23:56:00
4:16 PM,77.0,42.8,29,29.80,10.0,Calm,Calm,-,N/A,,Clear,0,2013-08-03 00:16:00
4:36 PM,77.0,44.6,32,29.79,10.0,Calm,Calm,-,N/A,,Clear,0,2013-08-03 00:36:00
4:56 PM,77.0,46.4,34,29.79,10.0,Calm,Calm,-,N/A,,Clear,0,2013-08-03 00:56:00
5:16 PM,77.0,44.6,32,29.78,10.0,Calm,Calm,-,N/A,,Clear,0,2013-08-03 01:16:00
5:36 PM,75.2,46.4,36,29.77,10.0,Calm,Calm,-,N/A,,Clear,0,2013-08-03 01:36:00
5:56 PM,75.2,46.4,36,29.77,8.0,Calm,Calm,-,N/A,,Clear,0,2013-08-03 01:56:00
6:16 PM,75.2,44.6,34,29.77,10.0,Calm,Calm,-,N/A,,Clear,0,2013-08-03 02:16:00
6:36 PM,77.0,46.4,34,29.76,10.0,Calm,Calm,-,N/A,,Clear,0,2013-08-03 02:36:00
6:56 PM,75.2,46.4,36,29.76,10.0,Calm,Calm,-,N/A,,Clear,0,2013-08-03 02:56:00
7:16 PM,73.4,48.2,41,29.75,10.0,Calm,Calm,-,N/A,,Clear,0,2013-08-03 03:16:00
7:36 PM,75.2,46.4,36,29.75,10.0,Calm,Calm,-,N/A,,Clear,0,2013-08-03 03:36:00
7:56 PM,73.4,46.4,38,29.74,10.0,Calm,Calm,-,N/A,,Clear,0,2013-08-03 03:56:00
8:16 PM,73.4,46.4,38,29.74,10.0,Calm,Calm,-,N/A,,Clear,0,2013-08-03 04:16:00
8:36 PM,71.6,48.2,43,29.74,10.0,Calm,Calm,-,N/A,,Clear,0,2013-08-03 04:36:00
8:56 PM,71.6,46.4,41,29.73,10.0,Calm,Calm,-,N/A,,Clear,0,2013-08-03 04:56:00
9:16 PM,71.6,46.4,41,29.73,10.0,Calm,Calm,-,N/A,,Clear,0,2013-08-03 05:16:00
9:36 PM,69.8,44.6,40,29.72,10.0,Calm,Calm,-,N/A,,Clear,0,2013-08-03 05:36:00
9:56 PM,69.8,44.6,40,29.72,10.0,WNW,3.5,-,N/A,,Clear,300,2013-08-03 05:56:00
10:16 PM,68.0,42.8,40,29.71,10.0,Calm,Calm,-,N/A,,Clear,0,2013-08-03 06:16:00
10:36 PM,68.0,42.8,40,29.71,10.0,Calm,Calm,-,N/A,,Clear,0,2013-08-03 06:36:00
10:56 PM,68.0,42.8,40,29.70,10.0,Calm,Calm,-,N/A,,Clear,0,2013-08-03 06:56:00
11:16 PM,68.0,42.8,40,29.70,10.0,Calm,Calm,-,N/A,,Clear,0,2013-08-03 07:16:00
11:36 PM,66.2,42.8,43,29.70,10.0,Calm,Calm,-,N/A,,Clear,0,2013-08-03 07:36:00
11:56 PM,66.2,42.8,43,29.69,10.0,Calm,Calm,-,N/A,,Clear,0,2013-08-03 07:56:00